Time;durP1;ratioP1;P1;durP2;ratioP2;P2;SDS_P1;SDS_P2;PMS_P1;PMS_P2;Temp;Humidity;BMP_temperature;BMP_pressure;BME280_temperature;BME280_humidity;BME280_pressure;Samples;Min_cycle;Max_cycle;Signal;HPM_P1;HPM_P2
2023/06/02 00:01:13;;;;;;;12.57;5.20;;;11.20;99.90;;;;;;5125226;28;20566;-77
2023/06/02 00:03:43;;;;;;;10.67;4.80;;;11.20;99.90;;;;;;5124783;28;20221;-78
2023/06/02 00:06:14;;;;;;;9.47;4.60;;;11.20;99.90;;;;;;5126175;28;20211;-76
2023/06/02 00:08:41;;;;;;;12.17;4.60;;;11.20;99.90;;;;;;5125842;28;20201;-76
2023/06/02 00:11:09;;;;;;;13.23;4.50;;;11.30;99.90;;;;;;5126323;28;20208;-76
2023/06/02 00:13:37;;;;;;;9.30;4.17;;;11.20;99.90;;;;;;5125664;28;20761;-79
2023/06/02 00:16:04;;;;;;;14.13;4.67;;;11.20;99.90;;;;;;5127344;28;20301;-78
2023/06/02 00:18:32;;;;;;;11.17;4.87;;;11.30;99.90;;;;;;5126627;28;20220;-76
2023/06/02 00:21:01;;;;;;;15.17;4.60;;;11.20;99.90;;;;;;5126962;28;20678;-77
2023/06/02 00:23:29;;;;;;;12.77;4.70;;;11.20;99.90;;;;;;5125790;28;20658;-77
2023/06/02 00:25:57;;;;;;;12.90;4.77;;;11.20;99.90;;;;;;5125685;28;20297;-77
2023/06/02 00:28:25;;;;;;;13.10;4.73;;;11.20;99.90;;;;;;5125805;28;20200;-76
2023/06/02 00:30:52;;;;;;;14.63;6.23;;;11.20;99.90;;;;;;5126387;28;20239;-76
2023/06/02 00:33:19;;;;;;;15.03;5.23;;;11.10;99.90;;;;;;5125337;28;20604;-77
2023/06/02 00:35:46;;;;;;;10.30;4.13;;;11.10;99.90;;;;;;5125368;28;20204;-76
2023/06/02 00:38:14;;;;;;;14.53;4.93;;;11.00;99.90;;;;;;5124339;28;20224;-77
2023/06/02 00:40:42;;;;;;;12.60;4.27;;;11.10;99.90;;;;;;5124383;28;20660;-76
2023/06/02 00:43:09;;;;;;;14.50;4.23;;;11.10;99.90;;;;;;5124589;28;20304;-78
2023/06/02 00:45:36;;;;;;;13.53;4.20;;;11.00;99.90;;;;;;5124819;28;20201;-78
2023/06/02 00:48:04;;;;;;;10.27;3.90;;;11.00;99.90;;;;;;5125228;28;20197;-78
2023/06/02 00:50:33;;;;;;;12.70;3.40;;;10.90;99.90;;;;;;5124844;28;20205;-76
2023/06/02 00:53:01;;;;;;;16.47;4.10;;;10.90;99.90;;;;;;5125976;28;20263;-78
2023/06/02 00:55:31;;;;;;;11.43;3.17;;;11.00;99.90;;;;;;5127137;28;20200;-78
2023/06/02 00:57:58;;;;;;;9.90;3.60;;;11.00;99.90;;;;;;5127444;28;20216;-79
2023/06/02 01:00:26;;;;;;;11.00;3.50;;;10.90;99.90;;;;;;5127386;28;20204;-78
2023/06/02 01:02:53;;;;;;;11.47;3.77;;;10.90;99.90;;;;;;5127554;28;20247;-78
2023/06/02 01:05:20;;;;;;;10.53;3.73;;;10.80;99.90;;;;;;5127315;28;20203;-79
2023/06/02 01:07:51;;;;;;;12.77;3.50;;;10.90;99.90;;;;;;5126908;28;20280;-76
2023/06/02 01:10:18;;;;;;;9.70;3.70;;;10.90;99.90;;;;;;5127997;28;20185;-76
2023/06/02 01:12:47;;;;;;;11.53;3.60;;;10.80;99.90;;;;;;5127442;28;20793;-77
2023/06/02 01:15:13;;;;;;;11.47;3.43;;;10.80;99.90;;;;;;5127297;28;20197;-78
2023/06/02 01:17:45;;;;;;;12.57;4.33;;;10.90;99.90;;;;;;5127488;28;20259;-80
2023/06/02 01:20:14;;;;;;;14.80;4.20;;;10.90;99.90;;;;;;5128337;28;20224;-79
2023/06/02 01:22:46;;;;;;;9.27;3.70;;;10.80;99.90;;;;;;5127005;28;20225;-78
2023/06/02 01:25:23;;;;;;;13.37;4.33;;;10.90;99.90;;;;;;5126165;28;20684;-78
2023/06/02 01:27:50;;;;;;;13.30;4.53;;;10.90;99.90;;;;;;5127790;28;20200;-78
2023/06/02 01:30:18;;;;;;;11.90;4.03;;;10.90;99.90;;;;;;5127554;28;20292;-80
2023/06/02 01:32:52;;;;;;;14.97;4.47;;;10.90;99.90;;;;;;5127614;28;20221;-78
2023/06/02 01:35:22;;;;;;;11.80;4.53;;;10.90;99.90;;;;;;5126846;28;20215;-79
2023/06/02 01:37:54;;;;;;;14.60;4.47;;;10.80;99.90;;;;;;5127222;28;20220;-78
2023/06/02 01:40:23;;;;;;;8.57;4.03;;;10.80;99.90;;;;;;5126914;28;20222;-78
2023/06/02 01:42:51;;;;;;;9.03;3.97;;;10.80;99.90;;;;;;5126779;28;20250;-77
2023/06/02 01:45:19;;;;;;;12.83;4.10;;;10.80;99.90;;;;;;5127104;28;20225;-79
2023/06/02 01:47:46;;;;;;;12.17;3.73;;;10.80;99.90;;;;;;5126702;28;20205;-80
2023/06/02 01:50:13;;;;;;;11.60;4.07;;;10.80;99.90;;;;;;5126756;28;20205;-78
2023/06/02 01:52:40;;;;;;;7.63;3.70;;;10.80;99.90;;;;;;5125475;28;20240;-78
2023/06/02 01:55:07;;;;;;;10.40;4.03;;;10.80;99.90;;;;;;5126862;28;20269;-79
2023/06/02 01:57:36;;;;;;;10.83;4.13;;;10.80;99.90;;;;;;5125551;28;20280;-78
2023/06/02 02:00:05;;;;;;;7.30;3.60;;;10.90;99.90;;;;;;5126153;28;20200;-79
2023/06/02 02:02:31;;;;;;;11.40;4.30;;;10.70;99.90;;;;;;5125600;28;20232;-78
2023/06/02 02:04:58;;;;;;;9.50;3.20;;;10.80;99.90;;;;;;5125921;28;20264;-80
2023/06/02 02:07:25;;;;;;;12.63;3.70;;;10.80;99.90;;;;;;5126748;28;20203;-78
2023/06/02 02:09:52;;;;;;;11.97;3.80;;;10.80;99.90;;;;;;5126803;28;20645;-78
2023/06/02 02:12:19;;;;;;;13.50;4.10;;;10.70;99.90;;;;;;5125812;28;20312;-78
2023/06/02 02:14:50;;;;;;;13.27;4.20;;;10.70;99.90;;;;;;5126782;28;20200;-79
2023/06/02 02:17:17;;;;;;;12.77;3.90;;;10.80;99.90;;;;;;5126813;28;20201;-78
2023/06/02 02:19:45;;;;;;;12.67;3.97;;;10.90;99.90;;;;;;5126469;28;20201;-80
2023/06/02 02:22:12;;;;;;;13.03;4.50;;;10.70;99.90;;;;;;5126442;28;20208;-79
2023/06/02 02:24:38;;;;;;;13.07;3.93;;;10.80;99.90;;;;;;5126650;28;20212;-78
2023/06/02 02:27:08;;;;;;;10.77;3.80;;;10.80;99.90;;;;;;5127560;28;20207;-78
2023/06/02 02:29:36;;;;;;;11.07;3.87;;;10.80;99.90;;;;;;5126743;28;20207;-76
2023/06/02 02:32:05;;;;;;;11.37;3.90;;;10.70;99.90;;;;;;5126779;28;20207;-76
2023/06/02 02:34:32;;;;;;;15.40;4.00;;;10.70;99.90;;;;;;5126537;28;20197;-79
2023/06/02 02:37:01;;;;;;;17.00;4.20;;;10.70;99.90;;;;;;5125599;28;20243;-76
2023/06/02 02:39:28;;;;;;;13.20;4.10;;;10.60;99.90;;;;;;5125433;28;20288;-77
2023/06/02 02:41:55;;;;;;;12.70;4.50;;;10.80;99.90;;;;;;5125004;28;20205;-77
2023/06/02 02:44:22;;;;;;;14.37;4.73;;;10.70;99.90;;;;;;5124391;28;20207;-79
2023/06/02 02:46:49;;;;;;;12.90;4.30;;;10.80;99.90;;;;;;5125878;28;20226;-77
2023/06/02 02:49:17;;;;;;;15.87;4.10;;;10.80;99.90;;;;;;5126513;28;20265;-78
2023/06/02 02:51:44;;;;;;;9.20;4.27;;;10.80;99.90;;;;;;5126142;28;20299;-77
2023/06/02 02:54:11;;;;;;;12.10;4.03;;;10.80;99.90;;;;;;5125505;28;20229;-77
2023/06/02 02:56:40;;;;;;;18.80;4.17;;;10.70;99.90;;;;;;5125964;28;20196;-77
2023/06/02 02:59:07;;;;;;;9.57;3.80;;;10.80;99.90;;;;;;5126305;28;20231;-77
2023/06/02 03:01:33;;;;;;;10.93;3.63;;;10.80;99.90;;;;;;5125483;28;20201;-77
2023/06/02 03:04:01;;;;;;;11.50;3.73;;;10.90;99.90;;;;;;5124913;28;20216;-77
2023/06/02 03:06:31;;;;;;;12.30;4.17;;;10.80;99.90;;;;;;5123793;28;20236;-76
2023/06/02 03:08:59;;;;;;;9.03;3.57;;;10.90;99.90;;;;;;5123577;28;20223;-76
2023/06/02 03:11:26;;;;;;;11.20;3.90;;;10.80;99.90;;;;;;5126396;28;20205;-78
2023/06/02 03:13:53;;;;;;;13.37;3.80;;;11.00;99.90;;;;;;5125428;28;20228;-78
2023/06/02 03:16:20;;;;;;;15.07;4.27;;;10.90;99.90;;;;;;5125068;28;20216;-76
2023/06/02 03:18:47;;;;;;;13.07;3.67;;;10.90;99.90;;;;;;5124197;28;20209;-77
2023/06/02 03:21:14;;;;;;;7.73;3.13;;;10.80;99.90;;;;;;5123751;28;20200;-79
2023/06/02 03:23:43;;;;;;;10.60;4.00;;;10.90;99.90;;;;;;5124780;28;20349;-78
2023/06/02 03:26:11;;;;;;;11.57;3.20;;;10.90;99.90;;;;;;5124408;28;20204;-79
2023/06/02 03:28:39;;;;;;;10.00;3.37;;;10.70;99.90;;;;;;5124307;28;20208;-79
2023/06/02 03:31:06;;;;;;;10.70;3.70;;;10.80;99.90;;;;;;5124509;28;20209;-78
2023/06/02 03:33:33;;;;;;;15.43;3.40;;;10.80;99.90;;;;;;5123611;28;20247;-77
2023/06/02 03:36:00;;;;;;;8.97;3.33;;;10.80;99.90;;;;;;5124839;28;20276;-77
2023/06/02 03:38:26;;;;;;;10.97;3.50;;;10.90;99.90;;;;;;5124215;28;20217;-79
2023/06/02 03:40:55;;;;;;;19.87;4.10;;;10.90;99.90;;;;;;5124567;28;20211;-76
2023/06/02 03:43:22;;;;;;;9.23;3.13;;;10.70;99.90;;;;;;5124424;28;20221;-78
2023/06/02 03:45:49;;;;;;;14.30;3.53;;;10.70;99.90;;;;;;5124316;28;20203;-78
2023/06/02 03:48:16;;;;;;;9.10;3.17;;;10.70;99.90;;;;;;5125022;28;20217;-76
2023/06/02 03:50:42;;;;;;;12.57;3.53;;;10.70;99.90;;;;;;5129767;28;20234;-77
2023/06/02 03:53:09;;;;;;;11.43;3.23;;;10.70;99.90;;;;;;5128733;28;20320;-78
2023/06/02 03:55:36;;;;;;;10.17;3.37;;;10.70;99.90;;;;;;5128754;28;20629;-76
2023/06/02 03:58:04;;;;;;;11.77;3.40;;;10.80;99.90;;;;;;5128977;28;20805;-77
2023/06/02 04:00:31;;;;;;;12.73;3.13;;;10.70;99.90;;;;;;5127768;28;20201;-77
2023/06/02 04:02:59;;;;;;;9.87;3.23;;;10.70;99.90;;;;;;5126674;28;20248;-76
2023/06/02 04:05:25;;;;;;;10.27;3.27;;;10.70;99.90;;;;;;5125337;28;20232;-77
2023/06/02 04:07:52;;;;;;;12.07;3.77;;;10.70;99.90;;;;;;5128179;28;20193;-77
2023/06/02 04:10:19;;;;;;;8.73;3.10;;;10.90;99.90;;;;;;5127718;28;20201;-78
2023/06/02 04:12:46;;;;;;;14.13;3.87;;;10.80;99.90;;;;;;5127694;28;20288;-79
2023/06/02 04:15:14;;;;;;;10.07;3.30;;;10.80;99.90;;;;;;5127065;28;20252;-78
2023/06/02 04:17:41;;;;;;;12.83;4.07;;;10.80;99.90;;;;;;5127429;28;20228;-78
2023/06/02 04:20:09;;;;;;;17.03;3.60;;;10.90;99.90;;;;;;5127383;28;20260;-78
2023/06/02 04:22:36;;;;;;;10.70;3.97;;;10.80;99.90;;;;;;5128457;28;20221;-77
2023/06/02 04:25:03;;;;;;;15.77;3.80;;;10.80;99.90;;;;;;5126733;28;20212;-76
2023/06/02 04:27:30;;;;;;;11.30;3.73;;;10.80;99.90;;;;;;5128063;28;20268;-79
2023/06/02 04:29:58;;;;;;;13.93;4.20;;;10.90;99.90;;;;;;5127042;28;20200;-79
2023/06/02 04:32:26;;;;;;;15.13;5.03;;;10.90;99.90;;;;;;5127366;28;20252;-79
2023/06/02 04:34:53;;;;;;;9.77;4.30;;;10.90;99.90;;;;;;5128588;28;20220;-78
2023/06/02 04:37:20;;;;;;;12.93;4.17;;;10.90;99.90;;;;;;5128772;28;20212;-78
2023/06/02 04:39:50;;;;;;;15.40;4.10;;;10.90;99.90;;;;;;5129036;28;20220;-78
2023/06/02 04:42:16;;;;;;;13.90;4.77;;;10.90;99.90;;;;;;5129642;28;20703;-77
2023/06/02 04:44:44;;;;;;;11.73;4.63;;;11.20;99.90;;;;;;5128033;28;20205;-77
2023/06/02 04:47:11;;;;;;;13.70;4.67;;;11.20;99.90;;;;;;5128333;28;20207;-79
2023/06/02 04:49:40;;;;;;;13.47;4.77;;;11.10;99.90;;;;;;5129810;28;20197;-78
2023/06/02 04:52:08;;;;;;;10.57;4.87;;;11.00;99.90;;;;;;5128051;28;20238;-77
2023/06/02 04:54:35;;;;;;;14.07;4.57;;;11.10;99.90;;;;;;5127235;28;20207;-77
2023/06/02 04:57:05;;;;;;;11.30;4.90;;;11.00;99.90;;;;;;5127389;28;20227;-79
2023/06/02 04:59:33;;;;;;;9.20;4.90;;;11.10;99.90;;;;;;5126846;28;20220;-79
2023/06/02 05:02:00;;;;;;;15.63;5.10;;;11.20;99.90;;;;;;5126716;28;20266;-79
2023/06/02 05:04:27;;;;;;;11.53;4.80;;;11.40;99.90;;;;;;5127525;28;20249;-77
2023/06/02 05:06:55;;;;;;;12.17;4.53;;;11.30;99.90;;;;;;5127281;28;20201;-78
2023/06/02 05:09:26;;;;;;;16.30;5.83;;;11.40;99.90;;;;;;5126368;28;20228;-79
2023/06/02 05:11:53;;;;;;;13.80;4.93;;;11.40;99.90;;;;;;5126362;28;20558;-78
2023/06/02 05:14:20;;;;;;;15.33;4.03;;;11.20;99.90;;;;;;5126892;28;20209;-79
2023/06/02 05:16:47;;;;;;;14.00;3.80;;;11.30;99.90;;;;;;5127521;28;20197;-78
2023/06/02 05:19:13;;;;;;;11.57;4.00;;;11.50;99.90;;;;;;5127802;28;20584;-78
2023/06/02 05:21:40;;;;;;;10.97;3.73;;;11.60;99.90;;;;;;5126925;28;20572;-78
2023/06/02 05:24:09;;;;;;;12.57;3.70;;;11.70;99.90;;;;;;5126870;28;20763;-79
2023/06/02 05:26:35;;;;;;;15.33;4.07;;;11.50;99.90;;;;;;5126212;28;20226;-78
2023/06/02 05:29:02;;;;;;;13.40;3.83;;;11.40;99.90;;;;;;5127064;28;20197;-77
2023/06/02 05:31:29;;;;;;;14.47;4.70;;;11.60;99.90;;;;;;5125176;28;20201;-79
2023/06/02 05:33:56;;;;;;;16.53;4.53;;;11.60;99.90;;;;;;5125206;28;20220;-77
2023/06/02 05:36:23;;;;;;;11.83;3.97;;;11.50;99.90;;;;;;5126629;28;20212;-78
2023/06/02 05:38:49;;;;;;;11.33;5.00;;;11.60;99.90;;;;;;5124724;28;20582;-77
2023/06/02 05:41:17;;;;;;;15.30;5.50;;;11.60;99.90;;;;;;5125784;28;20209;-79
2023/06/02 05:43:44;;;;;;;15.97;5.70;;;11.70;99.90;;;;;;5124899;28;20229;-78
2023/06/02 05:46:11;;;;;;;16.97;6.00;;;11.70;99.90;;;;;;5125053;28;20209;-78
2023/06/02 05:48:39;;;;;;;23.17;7.97;;;11.70;99.90;;;;;;5125514;28;20220;-80
2023/06/02 05:51:06;;;;;;;15.40;6.10;;;11.80;99.90;;;;;;5125983;28;20580;-80
2023/06/02 05:53:33;;;;;;;16.87;5.10;;;11.80;99.90;;;;;;5125472;28;20224;-76
2023/06/02 05:56:00;;;;;;;13.43;4.93;;;11.90;99.90;;;;;;5125872;28;20197;-77
2023/06/02 05:58:28;;;;;;;15.77;6.07;;;11.90;99.90;;;;;;5124820;28;20231;-77
2023/06/02 06:00:55;;;;;;;15.80;6.37;;;12.00;99.90;;;;;;5126424;28;20197;-77
2023/06/02 06:03:22;;;;;;;16.97;6.40;;;12.10;99.90;;;;;;5126886;28;20227;-77
2023/06/02 06:05:49;;;;;;;13.13;6.77;;;12.20;99.90;;;;;;5127303;28;20239;-78
2023/06/02 06:08:16;;;;;;;19.10;6.53;;;12.30;99.90;;;;;;5126629;28;20571;-78
2023/06/02 06:10:43;;;;;;;13.53;6.07;;;12.10;99.90;;;;;;5127588;28;20211;-77
2023/06/02 06:13:10;;;;;;;15.57;7.73;;;12.30;99.90;;;;;;5125380;28;20685;-79
2023/06/02 06:15:38;;;;;;;12.93;7.03;;;12.30;99.90;;;;;;5127910;28;20239;-79
2023/06/02 06:18:05;;;;;;;16.03;7.10;;;12.30;99.90;;;;;;5127524;28;20205;-77
2023/06/02 06:20:32;;;;;;;17.27;7.27;;;12.40;99.90;;;;;;5126586;28;20231;-78
2023/06/02 06:22:59;;;;;;;20.40;7.93;;;12.20;99.90;;;;;;5123447;28;20217;-77
2023/06/02 06:25:26;;;;;;;16.07;6.67;;;12.20;99.90;;;;;;5125089;28;20211;-77
2023/06/02 06:27:53;;;;;;;18.17;7.00;;;12.30;99.90;;;;;;5125366;28;20201;-79
2023/06/02 06:30:21;;;;;;;14.90;7.30;;;12.40;99.90;;;;;;5124538;28;20197;-79
2023/06/02 06:32:49;;;;;;;19.50;7.60;;;12.50;99.90;;;;;;5125350;28;20224;-78
2023/06/02 06:35:16;;;;;;;14.63;7.30;;;12.40;99.90;;;;;;5123994;28;20201;-79
2023/06/02 06:37:43;;;;;;;15.70;7.00;;;12.50;99.90;;;;;;5124815;28;20207;-78
2023/06/02 06:40:11;;;;;;;14.40;6.83;;;12.40;99.90;;;;;;5124890;28;20220;-78
2023/06/02 06:42:38;;;;;;;16.33;6.67;;;12.20;99.90;;;;;;5124015;28;20256;-78
2023/06/02 06:45:05;;;;;;;17.60;6.57;;;12.40;99.90;;;;;;5123223;28;20204;-77
2023/06/02 06:47:32;;;;;;;14.10;6.60;;;12.30;99.90;;;;;;5123304;28;20216;-78
2023/06/02 06:50:00;;;;;;;15.47;7.20;;;12.60;99.90;;;;;;5124552;28;20250;-79
2023/06/02 06:52:27;;;;;;;18.30;6.97;;;12.40;99.90;;;;;;5123846;28;20315;-78
2023/06/02 06:54:54;;;;;;;18.07;7.27;;;12.30;99.90;;;;;;5124337;28;20217;-78
2023/06/02 06:57:21;;;;;;;18.80;8.67;;;12.30;99.90;;;;;;5125111;28;20201;-78
2023/06/02 06:59:48;;;;;;;18.43;8.70;;;12.30;99.90;;;;;;5125583;28;20284;-78
2023/06/02 07:02:15;;;;;;;15.30;7.47;;;12.40;99.90;;;;;;5125301;28;20235;-79
2023/06/02 07:04:42;;;;;;;19.20;8.33;;;12.50;99.90;;;;;;5126395;28;20208;-78
2023/06/02 07:07:13;;;;;;;18.30;8.53;;;12.50;99.90;;;;;;5126552;28;20209;-77
2023/06/02 07:09:39;;;;;;;19.70;8.23;;;12.50;99.90;;;;;;5127197;28;20203;-76
2023/06/02 07:12:07;;;;;;;20.03;8.07;;;12.50;99.90;;;;;;5125500;28;20211;-77
2023/06/02 07:14:33;;;;;;;17.73;8.07;;;12.70;99.90;;;;;;5126388;28;20200;-79
2023/06/02 07:17:00;;;;;;;18.83;8.23;;;12.80;99.90;;;;;;5125958;28;20272;-77
2023/06/02 07:19:27;;;;;;;20.27;7.93;;;13.00;99.90;;;;;;5124968;28;20227;-78
2023/06/02 07:21:54;;;;;;;22.93;9.50;;;13.10;99.90;;;;;;5124937;28;20193;-78
2023/06/02 07:24:22;;;;;;;17.63;8.00;;;12.80;99.90;;;;;;5126913;28;20257;-78
2023/06/02 07:26:49;;;;;;;22.27;8.30;;;12.70;99.90;;;;;;5130221;28;20205;-79
2023/06/02 07:29:16;;;;;;;16.60;8.03;;;13.10;99.90;;;;;;5129284;28;20200;-79
2023/06/02 07:31:43;;;;;;;18.67;7.90;;;13.00;99.90;;;;;;5129133;28;20211;-78
2023/06/02 07:34:10;;;;;;;23.13;8.70;;;13.30;99.90;;;;;;5129273;28;20228;-78
2023/06/02 07:36:38;;;;;;;19.57;9.47;;;13.40;99.90;;;;;;5129285;28;20292;-78
2023/06/02 07:39:05;;;;;;;21.87;8.67;;;13.30;99.90;;;;;;5129720;28;20217;-79
2023/06/02 07:41:33;;;;;;;15.60;7.70;;;13.50;99.90;;;;;;5129432;28;20256;-77
2023/06/02 07:44:00;;;;;;;22.67;8.70;;;13.60;99.90;;;;;;5129620;28;20316;-78
2023/06/02 07:46:27;;;;;;;16.90;8.00;;;13.50;99.90;;;;;;5130252;28;20204;-77
2023/06/02 07:48:54;;;;;;;18.73;8.73;;;13.70;99.90;;;;;;5129142;28;20209;-77
2023/06/02 07:51:20;;;;;;;17.17;8.80;;;13.90;99.90;;;;;;5129486;28;20262;-77
2023/06/02 07:53:47;;;;;;;18.50;7.90;;;14.10;99.90;;;;;;5128991;28;20221;-77
2023/06/02 07:56:14;;;;;;;17.10;7.90;;;13.80;99.90;;;;;;5127824;28;20211;-77
2023/06/02 07:58:42;;;;;;;15.23;7.63;;;13.40;99.90;;;;;;5127929;28;20669;-79
2023/06/02 08:01:09;;;;;;;22.50;9.50;;;13.90;99.90;;;;;;5128210;28;20234;-79
2023/06/02 08:03:36;;;;;;;16.73;7.67;;;13.70;99.90;;;;;;5128506;28;20221;-77
2023/06/02 08:06:03;;;;;;;20.53;8.40;;;13.80;99.90;;;;;;5127764;28;20205;-77
2023/06/02 08:08:30;;;;;;;18.97;8.60;;;13.90;99.90;;;;;;5127794;28;20207;-79
2023/06/02 08:10:57;;;;;;;19.27;8.60;;;14.10;99.90;;;;;;5128076;28;20193;-78
2023/06/02 08:13:24;;;;;;;16.40;7.37;;;14.20;99.90;;;;;;5126011;28;20260;-78
2023/06/02 08:15:52;;;;;;;16.83;8.70;;;14.30;99.90;;;;;;5128450;28;20207;-78
2023/06/02 08:18:19;;;;;;;21.27;9.63;;;14.10;99.90;;;;;;5128128;28;20738;-78
2023/06/02 08:20:46;;;;;;;17.67;8.40;;;14.40;99.90;;;;;;5126671;28;20217;-78
2023/06/02 08:23:13;;;;;;;19.03;8.43;;;14.30;99.90;;;;;;5126644;28;20653;-77
2023/06/02 08:25:40;;;;;;;18.30;8.33;;;14.40;99.90;;;;;;5127636;28;20197;-79
2023/06/02 08:28:07;;;;;;;15.73;7.60;;;14.60;99.90;;;;;;5128468;28;20707;-77
2023/06/02 08:30:35;;;;;;;17.07;7.60;;;14.70;99.90;;;;;;5128207;28;20232;-79
2023/06/02 08:33:05;;;;;;;14.83;7.93;;;14.80;99.90;;;;;;5128059;28;20254;-77
2023/06/02 08:35:32;;;;;;;13.97;7.90;;;14.60;99.90;;;;;;5126125;28;20208;-76
2023/06/02 08:38:02;;;;;;;17.70;7.85;;;14.80;99.90;;;;;;5125964;28;20230;-77
2023/06/02 08:40:36;;;;;;;18.00;7.77;;;15.00;99.90;;;;;;5126532;28;20221;-79
2023/06/02 08:43:04;;;;;;;17.40;7.90;;;15.20;99.90;;;;;;5126395;28;20224;-79
2023/06/02 08:45:31;;;;;;;14.20;7.78;;;15.10;99.90;;;;;;5126075;28;20216;-79
2023/06/02 08:47:58;;;;;;;21.20;8.25;;;15.50;99.90;;;;;;5126562;28;20200;-77
2023/06/02 08:50:32;;;;;;;17.02;7.95;;;15.20;99.90;;;;;;5127457;28;20270;-78
2023/06/02 08:53:00;;;;;;;14.93;8.68;;;15.40;99.90;;;;;;5127664;28;20635;-77
2023/06/02 08:55:27;;;;;;;13.45;7.07;;;15.40;99.90;;;;;;5126851;28;20197;-79
2023/06/02 08:57:55;;;;;;;14.82;7.10;;;15.20;99.90;;;;;;5127785;28;20197;-77
2023/06/02 09:00:22;;;;;;;18.27;6.85;;;15.90;99.90;;;;;;5128081;28;20312;-80
2023/06/02 09:02:50;;;;;;;16.27;7.13;;;16.10;99.90;;;;;;5128310;28;20238;-79
2023/06/02 09:05:17;;;;;;;12.15;6.90;;;16.00;99.90;;;;;;5128409;28;20200;-77
2023/06/02 09:07:46;;;;;;;13.98;7.25;;;16.00;99.90;;;;;;5128459;28;20656;-78
2023/06/02 09:10:29;;;;;;;16.35;7.57;;;15.40;99.90;;;;;;5127737;28;20204;-79
2023/06/02 09:12:56;;;;;;;11.52;6.38;;;15.00;99.90;;;;;;5128035;28;20236;-79
2023/06/02 09:15:24;;;;;;;11.35;5.82;;;15.40;99.90;;;;;;5127419;28;20208;-78
2023/06/02 09:17:52;;;;;;;12.50;5.70;;;15.20;99.90;;;;;;5128346;28;20205;-78
2023/06/02 09:20:31;;;;;;;12.55;6.55;;;15.70;99.90;;;;;;5127746;28;20240;-78
2023/06/02 09:23:01;;;;;;;12.27;5.40;;;16.10;99.90;;;;;;5125963;28;20216;-78
2023/06/02 09:25:30;;;;;;;11.73;6.20;;;16.30;99.90;;;;;;5126206;28;20203;-78
2023/06/02 09:27:58;;;;;;;12.10;4.90;;;16.20;66.30;;;;;;5126687;28;20224;-77
2023/06/02 09:30:26;;;;;;;10.45;5.20;;;16.50;1.00;;;;;;5126666;28;20284;-79
2023/06/02 09:32:54;;;;;;;6.50;4.10;;;17.50;99.90;;;;;;5126411;28;20289;-78
2023/06/02 09:35:36;;;;;;;10.48;4.60;;;17.80;99.90;;;;;;5127435;28;20203;-78
2023/06/02 09:38:07;;;;;;;13.05;4.90;;;18.30;1.00;;;;;;5122651;28;20205;-78
2023/06/02 09:40:35;;;;;;;10.55;5.63;;;18.20;99.90;;;;;;5125930;28;20274;-78
2023/06/02 09:43:04;;;;;;;10.82;4.43;;;17.70;1.00;;;;;;5125347;28;20232;-77
2023/06/02 09:45:31;;;;;;;14.63;5.00;;;17.10;1.00;;;;;;5126713;28;20216;-76
2023/06/02 09:47:59;;;;;;;9.13;4.80;;;17.00;1.00;;;;;;5125793;28;20197;-77
2023/06/02 09:50:34;;;;;;;14.27;4.40;;;16.60;1.00;;;;;;5126786;28;20224;-79
2023/06/02 09:53:07;;;;;;;12.68;4.78;;;16.60;99.90;;;;;;5126195;28;20224;-79
2023/06/02 09:55:35;;;;;;;11.82;4.60;;;16.60;1.00;;;;;;5126224;28;20203;-78
2023/06/02 09:58:03;;;;;;;8.48;4.10;;;16.80;1.00;;;;;;5125904;28;20204;-80
2023/06/02 10:00:30;;;;;;;10.73;4.43;;;16.70;1.00;;;;;;5124888;28;20284;-80
2023/06/02 10:02:57;;;;;;;10.15;4.90;;;17.20;81.90;;;;;;5125282;28;20284;-77
2023/06/02 10:05:24;;;;;;;10.68;3.95;;;17.20;99.90;;;;;;5125312;28;20274;-77
2023/06/02 10:08:02;;;;;;;8.93;4.18;;;17.50;1.00;;;;;;5125627;28;20714;-77
2023/06/02 10:10:49;;;;;;;8.25;4.10;;;17.10;99.90;;;;;;5124955;28;20225;-79
2023/06/02 10:13:37;;;;;;;7.40;3.88;;;16.50;41.00;;;;;;5124045;28;20228;-78
2023/06/02 10:16:25;;;;;;;7.85;3.70;;;16.20;1.00;;;;;;5124020;28;20257;-77
2023/06/02 10:19:40;;;;;;;13.75;5.50;;;16.60;1.00;;;;;;5123380;28;20236;-78
2023/06/02 10:22:23;;;;;;;9.20;4.10;;;16.90;1.00;;;;;;5124547;28;20196;-78
2023/06/02 10:24:59;;;;;;;7.97;3.65;;;17.00;99.90;;;;;;5124507;28;20191;-77
2023/06/02 10:27:32;;;;;;;11.25;4.05;;;16.80;99.90;;;;;;5124133;28;20200;-78
2023/06/02 10:29:59;;;;;;;10.30;3.55;;;16.40;1.00;;;;;;5124162;28;20201;-79
2023/06/02 10:32:28;;;;;;;9.15;4.10;;;16.30;99.90;;;;;;5124243;28;20250;-77
2023/06/02 10:34:55;;;;;;;9.82;3.85;;;16.40;1.00;;;;;;5123135;28;20689;-77
2023/06/02 10:37:23;;;;;;;7.65;3.40;;;16.40;1.00;;;;;;5119893;28;20389;-78
2023/06/02 10:39:54;;;;;;;6.97;3.40;;;16.60;1.00;;;;;;5114784;28;20329;-79
2023/06/02 10:42:23;;;;;;;8.40;3.78;;;16.90;1.00;;;;;;5116002;28;20220;-80
2023/06/02 10:44:52;;;;;;;7.80;3.35;;;17.20;31.50;;;;;;5115113;28;20594;-79
2023/06/02 10:47:38;;;;;;;7.30;3.60;;;17.20;1.00;;;;;;5114972;28;20205;-79
2023/06/02 10:50:10;;;;;;;5.82;2.95;;;16.70;1.00;;;;;;5114998;28;20567;-78
2023/06/02 10:53:09;;;;;;;7.97;3.75;;;16.90;1.00;;;;;;5115109;28;20742;-79
2023/06/02 10:55:39;;;;;;;8.15;3.20;;;17.00;1.00;;;;;;5115755;28;20200;-79
2023/06/02 10:58:07;;;;;;;9.30;3.85;;;17.40;1.00;;;;;;5114982;28;20636;-78
2023/06/02 11:00:50;;;;;;;9.93;4.05;;;16.70;1.00;;;;;;5119289;28;20231;-79
2023/06/02 11:03:32;;;;;;;7.25;3.40;;;16.70;1.00;;;;;;5118599;28;20311;-79
2023/06/02 11:06:21;;;;;;;5.43;3.22;;;17.40;1.00;;;;;;5119048;28;20200;-79
2023/06/02 11:08:49;;;;;;;8.50;3.53;;;17.90;1.00;;;;;;5119765;28;20204;-78
2023/06/02 11:11:51;;;;;;;9.55;3.42;;;18.30;99.90;;;;;;5118965;28;20200;-78
2023/06/02 11:14:18;;;;;;;9.48;3.50;;;18.40;1.00;;;;;;5119031;28;20232;-78
2023/06/02 11:16:46;;;;;;;9.95;3.47;;;17.90;99.90;;;;;;5119139;28;20301;-79
2023/06/02 11:19:33;;;;;;;8.75;3.03;;;18.10;99.90;;;;;;5118924;28;20570;-79
2023/06/02 11:22:05;;;;;;;7.63;3.33;;;18.70;1.00;;;;;;5118755;28;20221;-79
2023/06/02 11:24:32;;;;;;;10.38;3.72;;;19.20;1.00;;;;;;5118962;28;20205;-79
2023/06/02 11:26:58;;;;;;;7.13;3.40;;;18.90;1.00;;;;;;5120109;28;20209;-79
2023/06/02 11:29:25;;;;;;;7.68;3.28;;;18.30;12.20;;;;;;5119374;28;20223;-79
2023/06/02 11:31:54;;;;;;;9.80;3.45;;;18.40;1.00;;;;;;5118812;28;20197;-78
2023/06/02 11:34:20;;;;;;;9.90;3.28;;;18.50;1.00;;;;;;5118926;28;20247;-79
2023/06/02 11:36:48;;;;;;;7.93;2.78;;;18.80;99.90;;;;;;5118697;28;20207;-79
2023/06/02 11:39:17;;;;;;;10.00;3.00;;;18.40;1.00;;;;;;5118429;28;20208;-79
2023/06/02 11:41:57;;;;;;;7.20;3.20;;;18.30;1.00;;;;;;5118270;28;20220;-78
2023/06/02 11:44:24;;;;;;;8.30;3.13;;;17.80;1.00;;;;;;5117779;28;20278;-78
2023/06/02 11:46:53;;;;;;;4.43;2.72;;;17.80;99.90;;;;;;5118819;28;20201;-78
2023/06/02 11:49:19;;;;;;;9.32;2.80;;;17.90;1.00;;;;;;5118145;28;20197;-78
2023/06/02 11:51:46;;;;;;;12.02;3.33;;;18.00;1.00;;;;;;5117834;28;20205;-79
2023/06/02 11:54:13;;;;;;;7.93;3.35;;;17.50;99.90;;;;;;5118479;28;20216;-78
2023/06/02 11:56:42;;;;;;;10.95;3.20;;;17.80;80.00;;;;;;5118888;28;20209;-78
2023/06/02 11:59:16;;;;;;;7.15;3.35;;;17.70;1.00;;;;;;5118288;28;20209;-79
2023/06/02 12:01:44;;;;;;;11.10;3.08;;;18.70;1.00;;;;;;5118506;28;20629;-79
2023/06/02 12:04:13;;;;;;;7.20;3.20;;;18.90;2.70;;;;;;5117652;28;20696;-79
2023/06/02 12:06:47;;;;;;;6.22;3.50;;;18.80;1.00;;;;;;5117949;28;20287;-80
2023/06/02 12:09:14;;;;;;;9.25;2.97;;;18.70;1.00;;;;;;5117766;28;20197;-79
2023/06/02 12:11:42;;;;;;;7.03;3.00;;;18.40;99.90;;;;;;5117743;28;20193;-79
2023/06/02 12:14:10;;;;;;;7.38;2.83;;;18.70;1.00;;;;;;5117112;28;20223;-78
2023/06/02 12:16:40;;;;;;;6.88;3.47;;;18.80;1.00;;;;;;5117863;28;20200;-78
2023/06/02 12:19:15;;;;;;;6.78;3.30;;;18.40;1.00;;;;;;5117349;28;20197;-78
2023/06/02 12:21:42;;;;;;;6.50;2.80;;;18.50;1.00;;;;;;5117517;28;20355;-79
2023/06/02 12:24:09;;;;;;;6.35;2.55;;;19.00;1.00;;;;;;5116741;28;20227;-77
2023/06/02 12:26:40;;;;;;;7.22;3.13;;;19.20;99.90;;;;;;5118002;28;20201;-77
2023/06/02 12:29:07;;;;;;;5.53;2.90;;;19.60;99.90;;;;;;5117230;28;20200;-78
2023/06/02 12:31:33;;;;;;;11.68;3.47;;;19.40;99.90;;;;;;5117058;28;20197;-79
2023/06/02 12:34:00;;;;;;;10.40;3.50;;;18.70;1.00;;;;;;5116512;28;20635;-79
2023/06/02 12:36:29;;;;;;;6.05;2.70;;;18.70;1.00;;;;;;5116617;28;20573;-80
2023/06/02 12:38:56;;;;;;;7.15;3.08;;;19.00;99.90;;;;;;5116938;28;20201;-79
2023/06/02 12:41:23;;;;;;;8.80;2.78;;;19.20;1.00;;;;;;5116830;28;20689;-79
2023/06/02 12:43:50;;;;;;;7.43;2.80;;;19.10;1.00;;;;;;5116300;28;20220;-79
2023/06/02 12:46:17;;;;;;;5.53;2.60;;;18.80;1.00;;;;;;5117457;28;20308;-78
2023/06/02 12:48:45;;;;;;;6.90;3.28;;;18.30;1.00;;;;;;5117499;28;20215;-78